createdAt,value
2023-04-15T00:01:11.732Z,4.50
2023-04-15T00:03:41.376Z,4.50
2023-04-15T00:06:09.732Z,4.60
2023-04-15T00:08:37.822Z,4.50
2023-04-15T00:11:06.062Z,4.50
2023-04-15T00:13:33.931Z,4.40
2023-04-15T00:16:02.204Z,4.40
2023-04-15T00:18:31.575Z,4.50
2023-04-15T00:21:00.771Z,4.50
2023-04-15T00:23:28.862Z,4.60
2023-04-15T00:25:56.862Z,4.40
2023-04-15T00:28:24.751Z,4.50
2023-04-15T00:30:52.752Z,4.40
2023-04-15T00:33:20.598Z,4.40
2023-04-15T00:35:48.493Z,4.50
2023-04-15T00:38:17.757Z,4.50
2023-04-15T00:40:45.576Z,4.50
2023-04-15T00:43:13.380Z,4.50
2023-04-15T00:45:41.287Z,4.50
2023-04-15T00:48:09.539Z,4.50
2023-04-15T00:50:37.396Z,4.60
2023-04-15T00:53:05.195Z,4.50
2023-04-15T00:55:34.442Z,4.40
2023-04-15T00:58:02.269Z,4.40
2023-04-15T01:00:30.382Z,4.50
2023-04-15T01:02:58.437Z,4.50
2023-04-15T01:05:27.094Z,4.40
2023-04-15T01:07:54.950Z,4.40
2023-04-15T01:10:22.791Z,4.50
2023-04-15T01:12:52.434Z,4.40
2023-04-15T01:15:20.477Z,4.50
2023-04-15T01:17:48.467Z,4.50
2023-04-15T01:20:16.773Z,4.50
2023-04-15T01:22:45.174Z,4.50
2023-04-15T01:25:13.748Z,4.50
2023-04-15T01:27:43.277Z,4.60
2023-04-15T01:30:12.223Z,4.40
2023-04-15T01:32:40.143Z,4.40
2023-04-15T01:35:08.865Z,4.50
2023-04-15T01:37:36.838Z,4.40
2023-04-15T01:40:29.397Z,4.40
2023-04-15T01:42:58.528Z,4.50
2023-04-15T01:45:26.426Z,4.50
2023-04-15T01:47:54.249Z,4.50
2023-04-15T01:50:22.194Z,4.50
2023-04-15T01:52:50.030Z,4.50
2023-04-15T01:55:18.373Z,4.60
2023-04-15T01:57:46.525Z,4.50
2023-04-15T02:00:16.518Z,4.50
2023-04-15T02:02:44.884Z,4.40
2023-04-15T02:05:12.772Z,4.40
2023-04-15T02:07:40.555Z,4.50
2023-04-15T02:10:09.315Z,4.50
2023-04-15T02:12:37.171Z,4.40
2023-04-15T02:15:05.521Z,4.40
2023-04-15T02:17:37.360Z,4.50
2023-04-15T02:20:06.625Z,4.50
2023-04-15T02:22:34.433Z,4.50
2023-04-15T02:25:02.221Z,4.50
2023-04-15T02:27:30.607Z,4.50
2023-04-15T02:29:58.410Z,4.60
2023-04-15T02:32:26.279Z,4.50
2023-04-15T02:34:55.413Z,4.50
2023-04-15T02:37:23.250Z,4.40
2023-04-15T02:39:51.482Z,4.50
2023-04-15T02:42:21.610Z,4.50
2023-04-15T02:44:49.461Z,4.50
2023-04-15T02:47:17.301Z,4.50
2023-04-15T02:49:45.085Z,4.50
2023-04-15T02:52:14.408Z,4.40
2023-04-15T02:54:42.188Z,4.50
2023-04-15T02:57:11.659Z,4.50
2023-04-15T02:59:39.594Z,4.50
2023-04-15T03:02:08.484Z,4.60
2023-04-15T03:04:36.357Z,4.60
2023-04-15T03:07:04.157Z,4.60
2023-04-15T03:09:33.280Z,4.60
2023-04-15T03:12:01.212Z,4.50
2023-04-15T03:14:29.002Z,4.50
2023-04-15T03:16:59.251Z,4.50
2023-04-15T03:19:27.051Z,4.40
2023-04-15T03:21:54.845Z,4.40
2023-04-15T03:24:22.640Z,4.40
2023-04-15T03:26:51.784Z,4.40
2023-04-15T03:29:19.574Z,4.40
2023-04-15T03:31:47.368Z,4.40
2023-04-15T03:34:15.153Z,4.50
2023-04-15T03:36:42.932Z,4.50
2023-04-15T03:39:10.707Z,4.50
2023-04-15T03:41:38.494Z,4.50
2023-04-15T03:44:07.728Z,4.40
2023-04-15T03:46:35.646Z,4.30
2023-04-15T03:49:04.014Z,4.30
2023-04-15T03:51:32.344Z,4.40
2023-04-15T03:54:00.170Z,4.30
2023-04-15T03:56:28.011Z,4.30
2023-04-15T03:58:55.773Z,4.30
2023-04-15T04:01:25.181Z,4.30
2023-04-15T04:03:53.153Z,4.30
2023-04-15T04:06:21.225Z,4.30
2023-04-15T04:08:49.010Z,4.30
2023-04-15T04:11:17.170Z,4.30
2023-04-15T04:13:45.065Z,4.30
2023-04-15T04:16:13.072Z,4.30
2023-04-15T04:18:42.387Z,4.40
2023-04-15T04:21:10.217Z,4.40
2023-04-15T04:23:38.108Z,4.40
2023-04-15T04:26:06.177Z,4.50
2023-04-15T04:28:35.431Z,4.50
2023-04-15T04:31:03.410Z,4.40
2023-04-15T04:33:31.484Z,4.40
2023-04-15T04:36:00.865Z,4.40
2023-04-15T04:38:28.767Z,4.40
2023-04-15T04:40:56.685Z,4.40
2023-04-15T04:43:24.754Z,4.40
2023-04-15T04:45:52.569Z,4.40
2023-04-15T04:48:20.593Z,4.50
2023-04-15T04:50:48.538Z,4.50
2023-04-15T04:53:18.243Z,4.50
2023-04-15T04:55:46.110Z,4.50
2023-04-15T04:58:14.064Z,4.50
2023-04-15T05:00:42.143Z,4.40
2023-04-15T05:03:10.412Z,4.40
2023-04-15T05:05:39.502Z,4.50
2023-04-15T05:08:07.634Z,4.50
2023-04-15T05:10:37.186Z,4.50
2023-04-15T05:13:05.075Z,4.40
2023-04-15T05:15:33.306Z,4.40
2023-04-15T05:18:01.430Z,4.40
2023-04-15T05:20:29.345Z,4.50
2023-04-15T05:22:57.320Z,4.80
2023-04-15T05:25:25.158Z,4.70
2023-04-15T05:27:54.447Z,4.70
2023-04-15T05:30:22.383Z,4.70
2023-04-15T05:32:50.379Z,4.60
2023-04-15T05:35:19.073Z,4.60
2023-04-15T05:37:47.143Z,4.60
2023-04-15T05:40:15.589Z,4.60
2023-04-15T05:42:43.507Z,4.70
2023-04-15T05:45:13.686Z,4.80
2023-04-15T05:47:41.822Z,4.80
2023-04-15T05:50:10.417Z,4.90
2023-04-15T05:52:38.302Z,4.90
2023-04-15T05:55:07.157Z,4.90
2023-04-15T05:57:35.079Z,4.90
2023-04-15T06:00:03.691Z,5.00
2023-04-15T06:02:33.405Z,5.00
2023-04-15T06:05:01.726Z,5.10
2023-04-15T06:07:29.845Z,5.30
2023-04-15T06:09:57.718Z,5.30
2023-04-15T06:12:25.621Z,5.30
2023-04-15T06:14:53.518Z,5.40
2023-04-15T06:17:21.387Z,5.40
2023-04-15T06:19:55.486Z,5.40
2023-04-15T06:22:23.583Z,5.50
2023-04-15T06:24:51.546Z,5.50
2023-04-15T06:27:19.517Z,5.50
2023-04-15T06:29:47.398Z,5.50
2023-04-15T06:32:15.306Z,5.40
2023-04-15T06:34:43.172Z,5.40
2023-04-15T06:37:16.646Z,5.50
2023-04-15T06:39:44.655Z,5.50
2023-04-15T06:42:12.524Z,5.50
2023-04-15T06:44:40.588Z,5.50
2023-04-15T06:47:09.050Z,5.70
2023-04-15T06:49:37.017Z,5.80
2023-04-15T06:52:05.276Z,5.80
2023-04-15T06:54:34.533Z,5.90
2023-04-15T06:57:02.341Z,5.90
2023-04-15T06:59:30.166Z,5.90
2023-04-15T07:01:58.119Z,5.90
2023-04-15T07:04:26.046Z,5.90
2023-04-15T07:06:54.037Z,5.90
2023-04-15T07:09:21.945Z,5.90
2023-04-15T07:11:51.554Z,5.90
2023-04-15T07:14:19.648Z,6.00
2023-04-15T07:16:47.488Z,6.00
2023-04-15T07:19:15.648Z,6.00
2023-04-15T07:21:43.508Z,6.00
2023-04-15T07:24:11.461Z,6.10
2023-04-15T07:26:39.670Z,6.20
2023-04-15T07:29:08.881Z,6.20
2023-04-15T07:31:37.230Z,6.20
2023-04-15T07:34:05.233Z,6.20
2023-04-15T07:36:33.117Z,6.30
2023-04-15T07:39:02.187Z,6.40
2023-04-15T07:41:30.558Z,6.40
2023-04-15T07:43:58.368Z,6.40
2023-04-15T07:46:28.438Z,6.40
2023-04-15T07:48:56.358Z,6.60
2023-04-15T07:51:24.815Z,6.70
2023-04-15T07:53:52.888Z,6.70
2023-04-15T07:56:20.749Z,6.90
2023-04-15T07:58:48.576Z,7.00
2023-04-15T08:01:16.583Z,7.20
2023-04-15T08:03:45.893Z,7.20
2023-04-15T08:06:14.252Z,7.40
2023-04-15T08:08:43.082Z,7.50
2023-04-15T08:11:11.029Z,7.50
2023-04-15T08:13:38.872Z,7.70
2023-04-15T08:16:19.221Z,7.60
2023-04-15T08:18:48.666Z,7.70
2023-04-15T08:21:16.878Z,7.80
2023-04-15T08:23:44.776Z,7.90
2023-04-15T08:26:12.862Z,8.60
2023-04-15T08:28:41.597Z,8.60
2023-04-15T08:31:47.804Z,8.90
2023-04-15T08:34:17.018Z,9.00
2023-04-15T08:40:36.973Z,9.20
2023-04-15T08:43:04.813Z,9.60
2023-04-15T08:45:32.680Z,9.60
2023-04-15T08:48:00.660Z,9.60
2023-04-15T08:50:30.147Z,9.80
2023-04-15T08:52:59.216Z,9.80
2023-04-15T08:55:27.434Z,9.50
2023-04-15T08:57:55.286Z,9.40
2023-04-15T09:00:23.571Z,9.30
2023-04-15T09:02:51.543Z,9.20
2023-04-15T09:05:21.663Z,9.20
2023-04-15T09:07:51.546Z,9.20
2023-04-15T09:10:19.808Z,9.20
2023-04-15T09:12:47.860Z,9.30
2023-04-15T09:15:16.440Z,9.20
2023-04-15T09:17:44.726Z,9.20
2023-04-15T09:20:15.989Z,9.10
2023-04-15T09:22:54.418Z,9.20
2023-04-15T09:25:29.521Z,9.30
2023-04-15T09:28:01.650Z,9.30
2023-04-15T09:30:29.865Z,9.30
2023-04-15T09:33:00.043Z,9.30
2023-04-15T09:35:28.721Z,9.20
2023-04-15T09:38:04.174Z,9.30
2023-04-15T09:40:44.648Z,9.30
2023-04-15T09:43:13.876Z,9.50
2023-04-15T09:45:48.266Z,9.40
2023-04-15T09:48:18.122Z,9.40
2023-04-15T09:51:07.480Z,9.30
2023-04-15T09:53:40.467Z,9.20
2023-04-15T09:56:10.630Z,8.90
2023-04-15T09:58:39.395Z,8.90
2023-04-15T10:01:11.727Z,9.10
2023-04-15T10:03:39.828Z,9.10
2023-04-15T10:06:08.243Z,9.20
2023-04-15T10:08:41.730Z,9.20
2023-04-15T10:11:09.877Z,9.00
2023-04-15T10:13:40.404Z,9.20
2023-04-15T10:16:11.833Z,9.20
2023-04-15T10:18:44.609Z,9.20
2023-04-15T10:21:23.069Z,9.20
2023-04-15T10:24:04.062Z,9.40
2023-04-15T10:26:33.310Z,9.60
2023-04-15T10:29:02.736Z,9.80
2023-04-15T10:31:30.717Z,9.90
2023-04-15T10:33:59.127Z,10.10
2023-04-15T10:36:29.784Z,10.20
2023-04-15T10:38:58.999Z,10.10
2023-04-15T10:41:36.696Z,10.00
2023-04-15T10:44:05.772Z,10.30
2023-04-15T10:46:38.222Z,10.50
2023-04-15T10:49:09.395Z,10.50
2023-04-15T10:51:42.714Z,11.00
2023-04-15T10:54:15.680Z,11.00
2023-04-15T10:56:44.647Z,10.70
2023-04-15T10:59:12.672Z,10.60
2023-04-15T11:01:54.530Z,10.30
2023-04-15T11:04:54.236Z,10.30
2023-04-15T11:07:42.347Z,10.00
2023-04-15T11:10:56.241Z,10.10
2023-04-15T11:13:33.197Z,10.10
2023-04-15T11:16:04.528Z,10.20
2023-04-15T11:18:39.940Z,10.00
2023-04-15T11:21:11.025Z,9.90
2023-04-15T11:23:44.388Z,9.70
2023-04-15T11:26:12.939Z,9.70
2023-04-15T11:28:42.975Z,9.80
2023-04-15T11:31:11.925Z,9.70
2023-04-15T11:33:45.909Z,9.50
2023-04-15T11:36:13.904Z,9.50
2023-04-15T11:38:44.909Z,9.40
2023-04-15T11:41:12.997Z,9.40
2023-04-15T11:43:42.418Z,9.30
2023-04-15T11:46:13.476Z,9.30
2023-04-15T11:48:43.907Z,9.20
2023-04-15T11:51:12.514Z,9.20
2023-04-15T11:53:51.145Z,9.20
2023-04-15T11:56:28.774Z,9.10
2023-04-15T11:58:59.653Z,8.60
2023-04-15T12:01:36.360Z,8.60
2023-04-15T12:04:12.323Z,9.00
2023-04-15T12:06:41.268Z,9.10
2023-04-15T12:09:13.723Z,9.00
2023-04-15T12:11:43.292Z,8.90
2023-04-15T12:14:14.224Z,9.00
2023-04-15T12:16:49.164Z,9.00
2023-04-15T12:19:20.270Z,8.90
2023-04-15T12:21:48.998Z,8.90
2023-04-15T12:24:17.047Z,9.10
2023-04-15T12:26:45.912Z,9.20
2023-04-15T12:29:16.325Z,8.90
2023-04-15T12:31:51.742Z,8.80
2023-04-15T12:34:20.039Z,9.00
2023-04-15T12:36:48.073Z,9.20
2023-04-15T12:39:16.300Z,9.20
2023-04-15T12:41:44.589Z,9.10
2023-04-15T12:44:12.927Z,9.20
2023-04-15T12:46:45.348Z,9.20
2023-04-15T12:49:16.037Z,9.20
2023-04-15T12:51:46.267Z,9.20
2023-04-15T12:54:14.233Z,9.10
2023-04-15T12:56:44.050Z,9.30
2023-04-15T12:59:15.263Z,9.20
2023-04-15T13:01:47.408Z,9.20
2023-04-15T13:04:16.543Z,9.20
2023-04-15T13:06:47.653Z,9.30
2023-04-15T13:09:18.501Z,9.20
2023-04-15T13:11:46.464Z,9.10
2023-04-15T13:14:15.793Z,9.10
2023-04-15T13:16:45.677Z,8.90
2023-04-15T13:19:16.393Z,8.80
2023-04-15T13:21:47.430Z,8.90
2023-04-15T13:24:15.666Z,8.70
2023-04-15T13:29:31.489Z,8.40
2023-04-15T13:32:01.589Z,8.40
2023-04-15T13:34:30.067Z,8.20
2023-04-15T13:36:58.106Z,8.30
2023-04-15T13:39:26.605Z,8.20
2023-04-15T13:41:54.486Z,8.10
2023-04-15T13:44:25.524Z,8.10
2023-04-15T13:46:53.574Z,8.20
2023-04-15T13:49:22.903Z,8.00
2023-04-15T13:51:53.665Z,8.00
2023-04-15T13:54:22.994Z,8.20
2023-04-15T13:56:51.104Z,8.20
2023-04-15T13:59:19.305Z,8.10
2023-04-15T14:01:47.363Z,8.00
2023-04-15T14:04:15.446Z,7.90
2023-04-15T14:06:47.913Z,8.00
2023-04-15T14:09:16.142Z,8.00
2023-04-15T14:11:44.080Z,8.00
2023-04-15T14:14:12.012Z,8.00
2023-04-15T14:16:40.155Z,8.10
2023-04-15T14:19:08.536Z,8.10
2023-04-15T14:21:37.624Z,8.10
2023-04-15T14:24:07.463Z,8.20
2023-04-15T14:26:41.430Z,8.30
2023-04-15T14:29:15.368Z,8.30
2023-04-15T14:31:44.894Z,8.30
2023-04-15T14:34:41.396Z,8.20
2023-04-15T14:37:16.630Z,8.30
2023-04-15T14:39:45.998Z,8.20
2023-04-15T14:42:13.856Z,8.20
2023-04-15T14:44:42.044Z,8.20
2023-04-15T14:47:12.763Z,8.20
2023-04-15T14:49:43.563Z,8.20
2023-04-15T14:52:14.671Z,8.10
2023-04-15T14:54:42.652Z,8.10
2023-04-15T14:57:12.012Z,8.10
2023-04-15T14:59:42.810Z,8.10
2023-04-15T15:02:12.898Z,7.90
2023-04-15T15:04:43.054Z,7.60
2023-04-15T15:07:11.162Z,7.60
2023-04-15T15:09:39.250Z,7.70
2023-04-15T15:12:40.937Z,7.60
2023-04-15T15:15:24.987Z,7.60
2023-04-15T15:17:56.882Z,7.60
2023-04-15T15:20:25.147Z,7.60
2023-04-15T15:22:53.250Z,7.60
2023-04-15T15:25:21.321Z,7.70
2023-04-15T15:27:50.937Z,7.70
2023-04-15T15:30:18.985Z,7.60
2023-04-15T15:32:47.136Z,7.50
2023-04-15T15:35:15.132Z,7.50
2023-04-15T15:37:50.840Z,7.20
2023-04-15T15:40:18.874Z,7.00
2023-04-15T15:42:49.829Z,7.00
2023-04-15T15:45:19.484Z,6.90
2023-04-15T15:47:47.500Z,6.80
2023-04-15T15:50:15.567Z,7.00
2023-04-15T15:52:43.627Z,7.10
2023-04-15T15:55:11.588Z,7.20
2023-04-15T15:57:39.614Z,7.10
2023-04-15T16:00:12.686Z,7.10
2023-04-15T16:05:14.827Z,7.10
2023-04-15T16:07:43.037Z,7.20
2023-04-15T16:10:12.498Z,7.20
2023-04-15T16:12:40.499Z,7.20
2023-04-15T16:15:09.367Z,7.20
2023-04-15T16:17:37.531Z,7.30
2023-04-15T16:20:08.122Z,7.20
2023-04-15T16:22:36.156Z,7.10
2023-04-15T16:25:04.216Z,7.10
2023-04-15T16:27:32.830Z,7.10
2023-04-15T16:30:08.773Z,7.10
2023-04-15T16:32:37.179Z,7.00
2023-04-15T16:35:07.563Z,7.10
2023-04-15T16:37:36.112Z,7.20
2023-04-15T16:40:04.245Z,7.20
2023-04-15T16:42:32.423Z,7.00
2023-04-15T16:45:00.590Z,6.70
2023-04-15T16:47:28.664Z,6.30
2023-04-15T16:49:56.931Z,6.00
2023-04-15T16:52:26.522Z,6.00
2023-04-15T16:54:54.826Z,6.00
2023-04-15T17:00:22.800Z,5.80
2023-04-15T17:05:33.316Z,5.70
2023-04-15T17:09:05.609Z,5.70
2023-04-15T17:10:51.880Z,5.60
2023-04-15T17:13:20.119Z,5.70
2023-04-15T17:15:50.293Z,5.60
2023-04-15T17:18:18.386Z,5.70
2023-04-15T17:20:46.529Z,5.80
2023-04-15T17:23:18.966Z,5.80
2023-04-15T17:25:47.722Z,5.90
2023-04-15T17:28:15.714Z,5.80
2023-04-15T17:30:43.586Z,5.70
2023-04-15T17:33:57.987Z,5.80
2023-04-15T17:35:59.715Z,5.80
2023-04-15T17:38:29.008Z,5.70
2023-04-15T17:40:56.978Z,5.80
2023-04-15T17:43:24.847Z,5.90
2023-04-15T17:45:52.990Z,5.90
2023-04-15T17:48:20.814Z,5.80
2023-04-15T17:50:49.883Z,5.80
2023-04-15T17:53:19.750Z,5.80
2023-04-15T17:55:50.338Z,5.80
2023-04-15T17:58:18.631Z,5.90
2023-04-15T18:00:46.894Z,5.80
2023-04-15T18:03:15.204Z,5.70
2023-04-15T18:05:43.342Z,5.70
2023-04-15T18:08:11.279Z,5.60
2023-04-15T18:10:39.215Z,5.50
2023-04-15T18:13:08.405Z,5.50
2023-04-15T18:15:36.208Z,5.50
2023-04-15T18:18:04.032Z,5.50
2023-04-15T18:20:33.435Z,5.50
2023-04-15T18:23:01.287Z,5.50
2023-04-15T18:25:30.015Z,5.40
2023-04-15T18:27:57.889Z,5.40
2023-04-15T18:30:27.053Z,5.40
2023-04-15T18:32:55.221Z,5.40
2023-04-15T18:35:24.517Z,5.50
2023-04-15T18:37:53.294Z,5.50
2023-04-15T18:40:21.303Z,5.60
2023-04-15T18:42:49.146Z,5.50
2023-04-15T18:45:17.049Z,5.50
2023-04-15T18:47:50.713Z,5.50
2023-04-15T18:50:18.721Z,5.50
2023-04-15T18:52:46.801Z,5.60
2023-04-15T18:55:16.533Z,5.70
2023-04-15T18:57:46.590Z,5.70
2023-04-15T19:00:17.114Z,5.70
2023-04-15T19:02:46.445Z,5.70
2023-04-15T19:05:14.370Z,5.50
2023-04-15T19:07:42.212Z,5.60
2023-04-15T19:10:12.026Z,5.60
2023-04-15T19:12:40.458Z,5.60
2023-04-15T19:15:09.284Z,5.50
2023-04-15T19:17:37.256Z,5.60
2023-04-15T19:20:07.717Z,5.60
2023-04-15T19:22:35.664Z,5.50
2023-04-15T19:25:03.582Z,5.60
2023-04-15T19:27:31.492Z,5.60
2023-04-15T19:29:59.429Z,5.50
2023-04-15T19:32:27.287Z,5.60
2023-04-15T19:34:55.156Z,5.40
2023-04-15T19:37:24.344Z,5.50
2023-04-15T19:39:52.180Z,5.60
2023-04-15T19:42:20.034Z,5.60
2023-04-15T19:44:47.872Z,5.50
2023-04-15T19:47:15.916Z,5.40
2023-04-15T19:49:43.887Z,5.40
2023-04-15T19:52:11.785Z,5.40
2023-04-15T19:54:41.334Z,5.40
2023-04-15T19:57:09.186Z,5.50
2023-04-15T19:59:37.726Z,5.40
2023-04-15T20:02:07.390Z,5.40
2023-04-15T20:04:35.566Z,5.50
2023-04-15T20:07:06.068Z,5.40
2023-04-15T20:09:34.084Z,5.40
2023-04-15T20:12:46.996Z,5.40
2023-04-15T20:14:51.352Z,5.30
2023-04-15T20:17:19.203Z,5.40
2023-04-15T20:19:47.011Z,5.50
2023-04-15T20:22:14.871Z,5.50
2023-04-15T20:24:42.681Z,5.50
2023-04-15T20:27:11.875Z,5.50
2023-04-15T20:29:39.712Z,5.40
2023-04-15T20:32:11.237Z,5.80
2023-04-15T20:34:40.292Z,5.80
2023-04-15T20:37:08.256Z,5.70
2023-04-15T20:39:36.430Z,5.70
2023-04-15T20:42:04.372Z,5.70
2023-04-15T20:44:34.535Z,5.60
2023-04-15T20:47:02.525Z,5.50
2023-04-15T20:49:30.480Z,5.50
2023-04-15T20:51:58.311Z,5.60
2023-04-15T20:54:26.130Z,5.70
2023-04-15T20:56:54.031Z,5.70
2023-04-15T20:59:22.038Z,5.70
2023-04-15T21:01:51.413Z,5.60
2023-04-15T21:04:19.331Z,5.60
2023-04-15T21:06:47.501Z,5.50
2023-04-15T21:09:15.509Z,5.50
2023-04-15T21:14:21.085Z,5.50
2023-04-15T21:16:49.024Z,5.50
2023-04-15T21:19:18.284Z,5.40
2023-04-15T21:21:46.121Z,5.40
2023-04-15T21:24:14.057Z,5.30
2023-04-15T21:26:41.882Z,5.30
2023-04-15T21:29:11.722Z,5.40
2023-04-15T21:31:40.028Z,5.40
2023-04-15T21:34:07.854Z,5.40
2023-04-15T21:36:37.557Z,5.30
2023-04-15T21:39:05.993Z,5.40
2023-04-15T21:41:34.013Z,5.40
2023-04-15T21:44:02.262Z,5.40
2023-04-15T21:46:32.979Z,5.40
2023-04-15T21:49:02.983Z,5.40
2023-04-15T21:51:33.936Z,5.30
2023-04-15T21:54:06.146Z,5.30
2023-04-15T21:56:34.041Z,5.20
2023-04-15T21:59:01.912Z,5.10
2023-04-15T22:01:30.045Z,5.20
2023-04-15T22:03:58.195Z,5.20
2023-04-15T22:06:27.094Z,5.10
2023-04-15T22:08:57.539Z,5.20
2023-04-15T22:11:32.326Z,5.20
2023-04-15T22:14:00.693Z,5.20
2023-04-15T22:16:28.695Z,5.20
2023-04-15T22:18:56.745Z,5.10
2023-04-15T22:21:27.828Z,5.10
2023-04-15T22:24:32.223Z,5.00
2023-04-15T22:26:45.167Z,5.00
2023-04-15T22:29:13.054Z,4.90
2023-04-15T22:31:41.039Z,4.90
2023-04-15T22:34:09.242Z,5.00
2023-04-15T22:36:37.117Z,4.90
2023-04-15T22:39:05.248Z,4.90
2023-04-15T22:41:33.288Z,4.90
2023-04-15T22:44:02.628Z,5.00
2023-04-15T22:46:33.611Z,5.00
2023-04-15T22:49:01.660Z,5.10
2023-04-15T22:51:33.578Z,5.10
2023-04-15T22:54:01.543Z,5.00
2023-04-15T22:56:32.261Z,5.00
2023-04-15T22:59:00.111Z,4.80
2023-04-15T23:01:29.308Z,4.90
2023-04-15T23:04:05.959Z,4.90
2023-04-15T23:06:35.042Z,4.90
2023-04-15T23:09:03.054Z,4.80
2023-04-15T23:11:31.022Z,4.80
2023-04-15T23:13:58.982Z,4.80
2023-04-15T23:16:26.931Z,4.80
2023-04-15T23:18:56.369Z,4.70
2023-04-15T23:21:26.131Z,4.70
2023-04-15T23:23:54.258Z,4.80
2023-04-15T23:26:28.331Z,4.70
2023-04-15T23:28:56.583Z,4.70
2023-04-15T23:31:24.662Z,4.60
2023-04-15T23:33:52.666Z,4.60
2023-04-15T23:36:21.922Z,4.60
2023-04-15T23:38:49.856Z,4.50
2023-04-15T23:41:17.774Z,4.50
2023-04-15T23:43:45.579Z,4.60
2023-04-15T23:46:13.430Z,4.60
2023-04-15T23:48:41.969Z,4.60
2023-04-15T23:51:09.935Z,4.50
2023-04-15T23:53:39.178Z,4.50
2023-04-15T23:56:07.408Z,4.60
2023-04-15T23:58:35.309Z,4.50
